Time;durP1;ratioP1;P1;durP2;ratioP2;P2;SDS_P1;SDS_P2;PMS_P1;PMS_P2;Temp;Humidity;BMP_temperature;BMP_pressure;BME280_temperature;BME280_humidity;BME280_pressure;Samples;Min_cycle;Max_cycle;Signal;HPM_P1;HPM_P2
2021/09/29 00:02:10;;;;;;;12.00;8.85;;;;;;;;;;143735;570;47018;-87
2021/09/29 00:04:37;;;;;;;10.52;8.63;;;;;;;;;;143736;623;46012;-88
2021/09/29 00:07:05;;;;;;;10.45;9.45;;;;;;;;;;143736;659;46040;-89
2021/09/29 00:09:32;;;;;;;10.95;9.95;;;;;;;;;;143730;651;46918;-86
2021/09/29 00:11:59;;;;;;;11.98;10.02;;;;;;;;;;143735;586;46019;-87
2021/09/29 00:14:26;;;;;;;15.77;9.40;;;;;;;;;;143734;666;46020;-87
2021/09/29 00:16:54;;;;;;;13.15;8.70;;;;;;;;;;143734;568;46020;-88
2021/09/29 00:19:20;;;;;;;12.75;9.60;;;;;;;;;;143733;564;46013;-87
2021/09/29 00:21:47;;;;;;;10.45;8.85;;;;;;;;;;143735;639;47018;-87
2021/09/29 00:24:14;;;;;;;15.20;11.07;;;;;;;;;;143735;582;46022;-87
2021/09/29 00:26:41;;;;;;;10.07;9.18;;;;;;;;;;143734;585;47021;-88
2021/09/29 00:29:10;;;;;;;13.82;10.00;;;;;;;;;;143734;629;46012;-88
2021/09/29 00:31:38;;;;;;;9.85;8.85;;;;;;;;;;143734;632;47018;-88
2021/09/29 00:36:53;;;;;;;11.73;10.45;;;;;;;;;;143734;650;46016;-87
2021/09/29 00:39:19;;;;;;;12.98;9.95;;;;;;;;;;143733;580;46916;-88
2021/09/29 00:41:47;;;;;;;14.73;11.50;;;;;;;;;;143734;590;47019;-87
2021/09/29 00:44:13;;;;;;;14.32;10.65;;;;;;;;;;143735;684;46012;-87
2021/09/29 00:46:42;;;;;;;12.52;9.40;;;;;;;;;;143733;607;47020;-87
2021/09/29 00:49:08;;;;;;;13.77;10.07;;;;;;;;;;143732;589;46013;-87
2021/09/29 00:51:37;;;;;;;14.15;10.32;;;;;;;;;;143735;630;46018;-88
2021/09/29 00:54:05;;;;;;;11.50;9.95;;;;;;;;;;143737;558;46012;-87
2021/09/29 00:56:32;;;;;;;10.65;9.55;;;;;;;;;;143733;570;46020;-88
2021/09/29 00:58:59;;;;;;;12.82;10.38;;;;;;;;;;143732;591;47012;-87
2021/09/29 01:01:26;;;;;;;12.13;9.65;;;;;;;;;;143735;564;46016;-89
2021/09/29 01:03:54;;;;;;;13.07;9.55;;;;;;;;;;143735;569;46013;-87
2021/09/29 01:06:50;;;;;;;10.82;9.82;;;;;;;;;;143734;610;46018;-88
2021/09/29 01:09:29;;;;;;;15.95;10.38;;;;;;;;;;143734;569;46012;-87
2021/09/29 01:12:11;;;;;;;12.00;10.90;;;;;;;;;;143735;628;47019;-87
2021/09/29 01:15:02;;;;;;;10.07;8.67;;;;;;;;;;143735;656;46012;-88
2021/09/29 01:17:31;;;;;;;9.90;8.70;;;;;;;;;;143733;570;47019;-90
2021/09/29 01:20:19;;;;;;;9.18;8.27;;;;;;;;;;143731;591;46012;-88
2021/09/29 01:23:41;;;;;;;10.68;8.68;;;;;;;;;;143732;614;47018;-85
2021/09/29 01:26:15;;;;;;;11.60;7.65;;;;;;;;;;143734;638;46021;-88
2021/09/29 01:29:10;;;;;;;10.50;7.95;;;;;;;;;;143731;601;47020;-87
2021/09/29 01:31:38;;;;;;;10.57;7.62;;;;;;;;;;143733;671;46015;-87
2021/09/29 01:34:07;;;;;;;10.48;7.93;;;;;;;;;;143732;597;47019;-88
2021/09/29 01:36:34;;;;;;;13.15;8.13;;;;;;;;;;143736;610;46039;-89
2021/09/29 01:39:04;;;;;;;13.52;7.82;;;;;;;;;;143731;582;47018;-86
2021/09/29 01:41:32;;;;;;;10.82;7.70;;;;;;;;;;143734;592;45919;-87
2021/09/29 01:43:59;;;;;;;8.68;7.68;;;;;;;;;;143733;580;46014;-88
2021/09/29 01:46:27;;;;;;;9.27;7.93;;;;;;;;;;143733;678;46012;-89
2021/09/29 01:49:08;;;;;;;9.00;7.85;;;;;;;;;;143733;585;47018;-87
2021/09/29 01:51:41;;;;;;;12.55;8.52;;;;;;;;;;143733;605;46014;-87
2021/09/29 01:54:10;;;;;;;9.88;7.82;;;;;;;;;;143731;604;46018;-87
2021/09/29 01:56:37;;;;;;;10.98;9.75;;;;;;;;;;143734;804;46012;-86
2021/09/29 01:59:05;;;;;;;9.60;8.60;;;;;;;;;;143732;572;46030;-88
2021/09/29 02:01:39;;;;;;;10.50;9.27;;;;;;;;;;143731;579;46022;-87
2021/09/29 02:04:08;;;;;;;9.95;8.18;;;;;;;;;;143732;591;47019;-89
2021/09/29 02:06:51;;;;;;;10.13;8.40;;;;;;;;;;143734;565;47022;-88
2021/09/29 02:09:19;;;;;;;10.57;8.20;;;;;;;;;;143732;580;46014;-87
2021/09/29 02:11:46;;;;;;;10.93;7.85;;;;;;;;;;143733;668;46012;-86
2021/09/29 02:14:17;;;;;;;11.25;7.60;;;;;;;;;;143734;649;46018;-87
2021/09/29 02:16:45;;;;;;;10.38;9.10;;;;;;;;;;143736;574;46012;-88
2021/09/29 02:19:11;;;;;;;10.73;9.27;;;;;;;;;;143731;616;47021;-88
2021/09/29 02:21:40;;;;;;;11.10;8.85;;;;;;;;;;143730;645;46012;-86
2021/09/29 02:24:07;;;;;;;11.80;9.07;;;;;;;;;;143734;565;46018;-87
2021/09/29 02:26:34;;;;;;;9.32;8.43;;;;;;;;;;143731;706;47023;-91
2021/09/29 02:29:01;;;;;;;9.50;8.40;;;;;;;;;;143734;599;46028;-90
2021/09/29 02:31:28;;;;;;;12.10;8.35;;;;;;;;;;143732;632;46919;-88
2021/09/29 02:33:55;;;;;;;10.45;8.10;;;;;;;;;;143728;664;47019;-88
2021/09/29 02:36:21;;;;;;;9.77;8.48;;;;;;;;;;143734;618;46012;-89
2021/09/29 02:38:51;;;;;;;11.07;8.80;;;;;;;;;;143731;597;47020;-88
2021/09/29 02:41:21;;;;;;;10.57;7.37;;;;;;;;;;143729;623;46012;-87
2021/09/29 02:43:48;;;;;;;10.23;8.40;;;;;;;;;;143730;583;47018;-88
2021/09/29 02:46:15;;;;;;;13.43;8.35;;;;;;;;;;143736;579;46012;-88
2021/09/29 02:48:42;;;;;;;14.20;9.75;;;;;;;;;;143730;666;47018;-88
2021/09/29 02:51:19;;;;;;;12.73;8.68;;;;;;;;;;143732;576;46012;-90
2021/09/29 02:53:54;;;;;;;9.50;8.57;;;;;;;;;;143731;622;47014;-84
2021/09/29 02:56:41;;;;;;;10.43;8.57;;;;;;;;;;143739;711;45023;-90
2021/09/29 02:59:25;;;;;;;10.65;7.60;;;;;;;;;;143736;660;45020;-90
2021/09/29 03:01:55;;;;;;;10.13;9.27;;;;;;;;;;143736;670;45919;-89
2021/09/29 03:04:24;;;;;;;11.68;9.05;;;;;;;;;;143736;668;46019;-87
2021/09/29 03:06:52;;;;;;;11.52;8.20;;;;;;;;;;143739;655;45022;-88
2021/09/29 03:09:21;;;;;;;9.88;8.90;;;;;;;;;;143735;565;46020;-89
2021/09/29 03:11:48;;;;;;;10.05;8.63;;;;;;;;;;143735;581;46022;-89
2021/09/29 03:14:15;;;;;;;9.27;8.23;;;;;;;;;;143735;610;47018;-88
2021/09/29 03:16:45;;;;;;;9.25;7.62;;;;;;;;;;143738;573;45034;-90
2021/09/29 03:19:12;;;;;;;11.27;8.68;;;;;;;;;;143732;661;47021;-89
2021/09/29 03:21:39;;;;;;;12.15;8.48;;;;;;;;;;143734;590;46012;-89
2021/09/29 03:24:18;;;;;;;10.88;9.00;;;;;;;;;;143734;585;46018;-88
2021/09/29 03:26:47;;;;;;;9.82;8.20;;;;;;;;;;143733;593;46013;-88
2021/09/29 03:29:15;;;;;;;14.98;9.18;;;;;;;;;;143730;602;47018;-89
2021/09/29 03:31:43;;;;;;;13.23;9.10;;;;;;;;;;143732;635;46013;-89
2021/09/29 03:34:28;;;;;;;17.55;9.82;;;;;;;;;;143731;578;46018;-90
2021/09/29 03:36:56;;;;;;;13.70;9.70;;;;;;;;;;143733;570;46012;-91
2021/09/29 03:39:49;;;;;;;10.70;7.95;;;;;;;;;;143733;684;46019;-89
2021/09/29 03:42:29;;;;;;;;;;;;;;;;;;;;;
2021/09/29 03:45:01;;;;;;;12.18;9.02;;;;;;;;;;143735;657;46012;-89
2021/09/29 03:47:42;;;;;;;;;;;;;;;;;;;;;
2021/09/29 03:50:13;;;;;;;12.82;9.18;;;;;;;;;;143733;678;46025;-91
2021/09/29 03:52:50;;;;;;;12.30;9.20;;;;;;;;;;143733;563;46012;-91
2021/09/29 03:55:22;;;;;;;9.57;8.63;;;;;;;;;;143734;564;46021;-90
2021/09/29 03:57:49;;;;;;;11.80;8.65;;;;;;;;;;143734;672;46014;-91
2021/09/29 04:00:17;;;;;;;11.07;8.27;;;;;;;;;;143731;574;47020;-90
2021/09/29 04:02:44;;;;;;;11.40;9.32;;;;;;;;;;143732;743;46013;-92
2021/09/29 04:05:10;;;;;;;10.57;8.75;;;;;;;;;;143734;579;47016;-91
2021/09/29 04:07:37;;;;;;;10.35;8.82;;;;;;;;;;143735;564;46012;-91
2021/09/29 04:10:07;;;;;;;11.52;8.55;;;;;;;;;;143731;651;47019;-91
2021/09/29 04:12:34;;;;;;;13.32;8.75;;;;;;;;;;143731;564;46012;-91
2021/09/29 04:15:01;;;;;;;13.27;8.57;;;;;;;;;;143733;576;46014;-91
2021/09/29 04:17:29;;;;;;;11.15;9.18;;;;;;;;;;143737;677;46013;-89
2021/09/29 04:19:55;;;;;;;10.20;8.55;;;;;;;;;;143734;620;46014;-89
2021/09/29 04:22:23;;;;;;;13.82;10.10;;;;;;;;;;143732;576;46012;-91
2021/09/29 04:24:50;;;;;;;19.58;10.02;;;;;;;;;;143733;579;46019;-90
2021/09/29 04:27:20;;;;;;;10.95;9.77;;;;;;;;;;143735;566;46022;-90
2021/09/29 04:29:49;;;;;;;14.52;10.70;;;;;;;;;;143732;599;46020;-90
2021/09/29 04:32:19;;;;;;;12.68;9.65;;;;;;;;;;143735;567;46013;-89
2021/09/29 04:34:47;;;;;;;12.60;10.18;;;;;;;;;;143735;585;45018;-89
2021/09/29 04:37:13;;;;;;;10.80;9.70;;;;;;;;;;143736;573;46022;-86
2021/09/29 04:39:41;;;;;;;12.63;10.07;;;;;;;;;;143734;605;46020;-91
2021/09/29 04:42:08;;;;;;;19.15;9.75;;;;;;;;;;143732;650;46012;-90
2021/09/29 04:44:34;;;;;;;14.68;9.30;;;;;;;;;;143735;671;46018;-89
2021/09/29 04:47:02;;;;;;;18.40;14.60;;;;;;;;;;143736;639;46013;-90
2021/09/29 04:49:29;;;;;;;16.92;14.15;;;;;;;;;;143732;645;46018;-90
2021/09/29 04:51:57;;;;;;;16.42;14.73;;;;;;;;;;143733;564;46012;-89
2021/09/29 04:54:23;;;;;;;25.55;21.27;;;;;;;;;;143734;567;46019;-89
2021/09/29 04:56:51;;;;;;;24.87;22.42;;;;;;;;;;143734;633;46012;-92
2021/09/29 04:59:18;;;;;;;28.48;21.87;;;;;;;;;;143731;569;47020;-90
2021/09/29 05:01:44;;;;;;;24.25;21.87;;;;;;;;;;143731;796;46023;-91
2021/09/29 05:04:11;;;;;;;24.67;21.55;;;;;;;;;;143731;600;47018;-88
2021/09/29 05:06:41;;;;;;;24.75;21.92;;;;;;;;;;143735;569;46022;-89
2021/09/29 05:09:09;;;;;;;23.12;20.67;;;;;;;;;;143733;643;47019;-91
2021/09/29 05:11:50;;;;;;;22.15;19.45;;;;;;;;;;143733;564;46012;-91
2021/09/29 05:14:16;;;;;;;23.87;17.52;;;;;;;;;;143732;673;46018;-88
2021/09/29 05:16:43;;;;;;;16.50;14.57;;;;;;;;;;143734;605;46021;-90
2021/09/29 05:19:10;;;;;;;23.45;18.62;;;;;;;;;;143731;585;47021;-90
2021/09/29 05:21:38;;;;;;;19.52;16.67;;;;;;;;;;143735;598;46022;-92
2021/09/29 05:24:06;;;;;;;20.60;17.85;;;;;;;;;;143733;807;47019;-89
2021/09/29 05:26:46;;;;;;;18.65;16.27;;;;;;;;;;143734;602;47023;-91
2021/09/29 05:29:17;;;;;;;18.08;15.45;;;;;;;;;;143733;624;46014;-90
2021/09/29 05:31:43;;;;;;;18.45;16.45;;;;;;;;;;143732;581;46013;-89
2021/09/29 05:34:10;;;;;;;20.05;15.95;;;;;;;;;;143734;718;46018;-91
2021/09/29 05:36:41;;;;;;;17.17;15.38;;;;;;;;;;143734;564;46012;-88
2021/09/29 05:39:08;;;;;;;17.87;14.25;;;;;;;;;;143734;578;46019;-90
2021/09/29 05:41:35;;;;;;;14.87;13.45;;;;;;;;;;143734;625;46012;-90
2021/09/29 05:44:03;;;;;;;13.32;12.10;;;;;;;;;;143734;616;46018;-89
2021/09/29 05:46:30;;;;;;;14.00;12.60;;;;;;;;;;143736;733;46021;-89
2021/09/29 05:48:57;;;;;;;14.63;13.07;;;;;;;;;;143734;658;46018;-88
2021/09/29 05:51:27;;;;;;;12.52;10.82;;;;;;;;;;143732;648;46014;-90
2021/09/29 05:53:54;;;;;;;11.80;10.60;;;;;;;;;;143733;756;47018;-89
2021/09/29 05:56:23;;;;;;;12.95;10.27;;;;;;;;;;143735;574;46012;-89
2021/09/29 05:58:50;;;;;;;9.65;8.60;;;;;;;;;;143732;565;47018;-89
2021/09/29 06:01:19;;;;;;;9.70;8.80;;;;;;;;;;143733;660;46013;-89
2021/09/29 06:03:46;;;;;;;11.95;9.38;;;;;;;;;;143733;598;47018;-89
2021/09/29 06:06:13;;;;;;;11.60;10.00;;;;;;;;;;143735;693;46012;-89
2021/09/29 06:08:39;;;;;;;16.48;9.90;;;;;;;;;;143730;812;47020;-90
2021/09/29 06:11:06;;;;;;;15.00;10.10;;;;;;;;;;143731;624;46012;-89
2021/09/29 06:13:33;;;;;;;11.30;10.13;;;;;;;;;;143732;571;47018;-89
2021/09/29 06:16:06;;;;;;;14.87;10.30;;;;;;;;;;143735;622;46013;-92
2021/09/29 06:18:37;;;;;;;11.90;9.60;;;;;;;;;;143734;653;46022;-91
2021/09/29 06:21:04;;;;;;;10.43;9.35;;;;;;;;;;143733;590;46022;-90
2021/09/29 06:23:31;;;;;;;11.07;10.05;;;;;;;;;;143733;631;46019;-90
2021/09/29 06:25:58;;;;;;;14.73;11.00;;;;;;;;;;143737;573;46012;-92
2021/09/29 06:28:25;;;;;;;15.45;11.60;;;;;;;;;;143731;577;47020;-92
2021/09/29 06:30:54;;;;;;;16.23;10.90;;;;;;;;;;143732;581;46919;-90
2021/09/29 06:33:22;;;;;;;11.88;10.73;;;;;;;;;;143733;567;46018;-90
2021/09/29 06:35:49;;;;;;;11.52;10.40;;;;;;;;;;143734;698;46012;-91
2021/09/29 06:38:17;;;;;;;16.02;9.40;;;;;;;;;;143733;781;46048;-94
2021/09/29 06:40:46;;;;;;;10.73;9.57;;;;;;;;;;143731;567;46014;-90
2021/09/29 06:43:13;;;;;;;14.38;9.77;;;;;;;;;;143735;639;46018;-91
2021/09/29 06:45:40;;;;;;;11.27;8.65;;;;;;;;;;143735;654;46013;-90
2021/09/29 06:48:08;;;;;;;13.45;9.43;;;;;;;;;;143732;657;47021;-93
2021/09/29 06:50:35;;;;;;;10.40;8.88;;;;;;;;;;143731;573;46919;-92
2021/09/29 06:53:04;;;;;;;9.73;8.65;;;;;;;;;;143730;718;46019;-91
2021/09/29 06:55:31;;;;;;;12.40;8.02;;;;;;;;;;143736;620;46012;-91
2021/09/29 06:57:57;;;;;;;8.95;8.05;;;;;;;;;;143729;674;47018;-91
2021/09/29 07:00:25;;;;;;;12.57;7.90;;;;;;;;;;143730;566;46047;-90
2021/09/29 07:02:55;;;;;;;15.07;9.07;;;;;;;;;;143734;581;47018;-91
2021/09/29 07:05:21;;;;;;;9.00;8.10;;;;;;;;;;143735;687;46022;-90
2021/09/29 07:07:51;;;;;;;10.63;7.90;;;;;;;;;;143735;661;47018;-90
2021/09/29 07:10:18;;;;;;;12.07;8.45;;;;;;;;;;143733;604;46012;-90
2021/09/29 07:12:44;;;;;;;9.73;7.87;;;;;;;;;;143733;706;47018;-91
2021/09/29 07:15:16;;;;;;;9.77;8.57;;;;;;;;;;143736;634;46012;-92
2021/09/29 07:17:51;;;;;;;11.80;8.68;;;;;;;;;;143732;611;46019;-95
2021/09/29 07:20:30;;;;;;;11.15;8.57;;;;;;;;;;143732;603;47022;-92
2021/09/29 07:23:03;;;;;;;10.20;8.48;;;;;;;;;;143734;567;46018;-91
2021/09/29 07:25:31;;;;;;;10.60;8.45;;;;;;;;;;143732;601;47023;-90
2021/09/29 07:27:58;;;;;;;8.63;7.32;;;;;;;;;;143732;691;47020;-92
2021/09/29 07:30:25;;;;;;;11.90;8.85;;;;;;;;;;143732;603;46022;-93
2021/09/29 07:32:52;;;;;;;12.55;10.63;;;;;;;;;;143734;567;47018;-91
2021/09/29 07:35:20;;;;;;;28.50;10.90;;;;;;;;;;143736;663;46012;-89
2021/09/29 07:37:48;;;;;;;18.35;12.85;;;;;;;;;;143733;584;46020;-90
2021/09/29 07:40:15;;;;;;;16.92;14.63;;;;;;;;;;143733;646;46012;-92
2021/09/29 07:42:42;;;;;;;15.68;14.07;;;;;;;;;;143727;589;47018;-90
2021/09/29 07:45:10;;;;;;;17.70;13.73;;;;;;;;;;143735;664;46013;-90
2021/09/29 07:47:37;;;;;;;17.45;12.60;;;;;;;;;;143736;587;46021;-89
2021/09/29 07:50:06;;;;;;;13.30;11.93;;;;;;;;;;143735;596;46012;-89
2021/09/29 07:52:33;;;;;;;12.05;10.85;;;;;;;;;;143733;574;47018;-90
2021/09/29 07:55:00;;;;;;;16.02;13.25;;;;;;;;;;143733;616;46012;-90
2021/09/29 07:57:26;;;;;;;12.00;10.80;;;;;;;;;;143732;757;47020;-91
2021/09/29 07:59:53;;;;;;;12.05;10.13;;;;;;;;;;143733;638;46013;-91
2021/09/29 08:02:20;;;;;;;10.63;9.63;;;;;;;;;;143733;622;46019;-91
2021/09/29 08:04:46;;;;;;;8.77;7.72;;;;;;;;;;143734;619;46022;-91
2021/09/29 08:07:16;;;;;;;12.35;7.53;;;;;;;;;;143733;573;46020;-90
2021/09/29 08:09:42;;;;;;;12.37;7.70;;;;;;;;;;143734;564;46023;-89
2021/09/29 08:12:09;;;;;;;10.85;8.27;;;;;;;;;;143735;658;46038;-90
2021/09/29 08:14:39;;;;;;;10.35;6.68;;;;;;;;;;143735;653;46013;-91
2021/09/29 08:17:09;;;;;;;8.60;7.35;;;;;;;;;;143731;622;47021;-88
2021/09/29 08:19:36;;;;;;;7.32;6.57;;;;;;;;;;143734;573;46012;-91
2021/09/29 08:22:06;;;;;;;6.53;5.72;;;;;;;;;;143736;617;47018;-89
2021/09/29 08:24:39;;;;;;;7.20;5.47;;;;;;;;;;143736;657;46013;-91
2021/09/29 08:30:13;;;;;;;5.78;5.20;;;;;;;;;;143734;566;47023;-89
2021/09/29 08:35:33;;;;;;;6.40;5.07;;;;;;;;;;143734;619;46012;-88
2021/09/29 08:38:10;;;;;;;5.75;5.15;;;;;;;;;;143732;711;47019;-88
2021/09/29 08:40:49;;;;;;;5.55;4.93;;;;;;;;;;143732;564;46012;-90
2021/09/29 08:43:27;;;;;;;8.10;5.10;;;;;;;;;;143735;657;46018;-88
2021/09/29 08:46:14;;;;;;;5.35;4.85;;;;;;;;;;143735;622;46012;-89
2021/09/29 08:55:06;;;;;;;7.53;6.78;;;;;;;;;;143736;569;46018;-90
2021/09/29 09:17:38;;;;;;;11.60;7.60;;;;;;;;;;143746;637;46018;-91
2021/09/29 09:20:27;;;;;;;8.93;6.43;;;;;;;;;;143737;834;46020;-89
2021/09/29 09:22:56;;;;;;;12.02;7.20;;;;;;;;;;143732;596;47021;-90
2021/09/29 09:25:39;;;;;;;12.45;8.05;;;;;;;;;;143737;585;45918;-88
2021/09/29 09:28:10;;;;;;;11.75;7.78;;;;;;;;;;143736;598;46043;-88
2021/09/29 09:30:38;;;;;;;7.62;6.37;;;;;;;;;;143738;691;46010;-88
2021/09/29 09:33:06;;;;;;;8.05;6.05;;;;;;;;;;143734;606;47020;-91
2021/09/29 09:35:45;;;;;;;11.82;8.27;;;;;;;;;;143733;784;46013;-91
2021/09/29 09:38:21;;;;;;;8.38;6.28;;;;;;;;;;143736;569;46016;-89
2021/09/29 09:40:59;;;;;;;8.25;6.47;;;;;;;;;;143736;694;46010;-87
2021/09/29 09:43:28;;;;;;;10.18;6.70;;;;;;;;;;143733;612;47018;-87
2021/09/29 09:46:02;;;;;;;10.52;6.85;;;;;;;;;;143734;612;46010;-90
2021/09/29 09:48:30;;;;;;;22.65;7.97;;;;;;;;;;143735;575;46018;-89
2021/09/29 09:51:15;;;;;;;13.65;7.57;;;;;;;;;;143738;690;46021;-88
2021/09/29 09:53:56;;;;;;;18.50;11.75;;;;;;;;;;143732;686;47021;-87
2021/09/29 09:56:26;;;;;;;26.90;20.10;;;;;;;;;;143738;601;45919;-89
2021/09/29 09:58:59;;;;;;;18.67;9.50;;;;;;;;;;143737;626;46019;-87
2021/09/29 10:01:31;;;;;;;13.90;9.15;;;;;;;;;;143737;631;46010;-87
2021/09/29 10:04:09;;;;;;;11.07;6.85;;;;;;;;;;143734;618;47020;-87
2021/09/29 10:06:36;;;;;;;14.43;7.90;;;;;;;;;;143733;636;46023;-92
2021/09/29 10:09:10;;;;;;;13.68;7.55;;;;;;;;;;143736;570;46045;-88
2021/09/29 10:14:56;;;;;;;14.82;6.20;;;;;;;;;;143735;576;46023;-91
2021/09/29 10:23:26;;;;;;;15.13;6.28;;;;;;;;;;143736;564;46010;-88
2021/09/29 10:26:14;;;;;;;17.27;7.32;;;;;;;;;;143736;617;46020;-89
2021/09/29 10:28:44;;;;;;;15.25;6.93;;;;;;;;;;143734;650;45917;-89
2021/09/29 10:31:27;;;;;;;8.43;6.15;;;;;;;;;;143737;629;46018;-89
2021/09/29 10:33:56;;;;;;;;;;;;;;;;;;143741;980;46010;-91
2021/09/29 10:36:39;;;;;;;15.85;6.28;;;;;;;;;;143744;615;46035;-88
2021/09/29 10:42:07;;;;;;;14.38;5.75;;;;;;;;;;143736;587;46018;-88
2021/09/29 10:47:50;;;;;;;15.87;5.80;;;;;;;;;;143735;583;46018;-88
2021/09/29 11:07:49;;;;;;;11.65;6.15;;;;;;;;;;143739;668;46014;-84
2021/09/29 11:30:25;;;;;;;9.27;5.62;;;;;;;;;;143737;602;46036;-90
2021/09/29 12:11:16;;;;;;;13.32;5.12;;;;;;;;;;143734;629;46022;-90
2021/09/29 12:13:47;;;;;;;8.95;3.67;;;;;;;;;;143736;664;46019;-87
2021/09/29 12:16:29;;;;;;;8.55;4.82;;;;;;;;;;143737;569;46012;-86
2021/09/29 12:19:26;;;;;;;8.60;3.42;;;;;;;;;;143735;623;46020;-88
2021/09/29 12:21:58;;;;;;;8.43;3.53;;;;;;;;;;143735;617;46012;-90
2021/09/29 12:24:51;;;;;;;13.70;3.78;;;;;;;;;;143736;667;46018;-88
2021/09/29 12:27:56;;;;;;;14.13;4.07;;;;;;;;;;143736;570;46022;-88
2021/09/29 12:30:40;;;;;;;6.12;3.03;;;;;;;;;;143732;574;47023;-87
2021/09/29 12:36:07;;;;;;;7.37;3.65;;;;;;;;;;143743;649;46019;-90
2021/09/29 12:38:51;;;;;;;8.85;3.35;;;;;;;;;;143735;598;46022;-89
2021/09/29 12:41:19;;;;;;;9.07;4.00;;;;;;;;;;143737;566;46018;-90
2021/09/29 12:43:48;;;;;;;9.07;3.65;;;;;;;;;;143734;605;46022;-89
2021/09/29 12:46:17;;;;;;;14.02;3.72;;;;;;;;;;143735;646;47018;-86
2021/09/29 12:48:45;;;;;;;6.80;3.33;;;;;;;;;;143737;577;46010;-89
2021/09/29 12:51:14;;;;;;;11.85;4.03;;;;;;;;;;143733;572;47018;-87
2021/09/29 12:53:52;;;;;;;13.00;3.50;;;;;;;;;;143733;657;46010;-88
2021/09/29 12:56:19;;;;;;;5.15;3.00;;;;;;;;;;143734;636;46031;-89
2021/09/29 12:58:46;;;;;;;7.85;3.90;;;;;;;;;;143737;582;46010;-89
2021/09/29 13:01:14;;;;;;;10.70;4.82;;;;;;;;;;143734;673;46018;-90
2021/09/29 13:03:41;;;;;;;11.00;5.10;;;;;;;;;;143735;575;46022;-85
2021/09/29 13:06:10;;;;;;;12.93;4.20;;;;;;;;;;143736;611;46040;-90
2021/09/29 13:08:37;;;;;;;14.32;4.05;;;;;;;;;;143737;632;47010;-89
2021/09/29 13:11:20;;;;;;;7.57;3.40;;;;;;;;;;143732;573;48019;-87
2021/09/29 13:13:50;;;;;;;16.08;5.72;;;;;;;;;;143733;577;46010;-87
2021/09/29 13:16:20;;;;;;;9.82;4.55;;;;;;;;;;143735;586;47018;-88
2021/09/29 13:21:53;;;;;;;10.98;4.85;;;;;;;;;;143737;569;46023;-89
2021/09/29 13:38:34;;;;;;;9.30;3.90;;;;;;;;;;143735;569;46014;-91
2021/09/29 13:41:01;;;;;;;7.18;3.65;;;;;;;;;;143738;616;46022;-88
2021/09/29 13:43:28;;;;;;;11.90;3.78;;;;;;;;;;143733;571;46911;-90
2021/09/29 13:45:55;;;;;;;8.32;5.43;;;;;;;;;;143733;567;46010;-86
2021/09/29 13:48:22;;;;;;;11.12;4.20;;;;;;;;;;143735;581;46018;-88
2021/09/29 13:50:48;;;;;;;11.93;3.75;;;;;;;;;;143738;686;45023;-89
2021/09/29 13:53:15;;;;;;;8.98;3.45;;;;;;;;;;143730;566;47018;-88
2021/09/29 13:55:44;;;;;;;8.60;3.95;;;;;;;;;;143732;607;46022;-87
2021/09/29 14:01:20;;;;;;;10.98;4.15;;;;;;;;;;143736;579;46020;-87
2021/09/29 14:14:15;;;;;;;8.20;4.03;;;;;;;;;;143732;571;46020;-87
2021/09/29 14:15:26;;;;;;;12.50;4.05;;;;;;;;;;143731;569;46904;-88
2021/09/29 14:31:45;;;;;;;10.13;4.47;;;;;;;;;;143734;586;46012;-89
2021/09/29 14:34:12;;;;;;;8.25;5.22;;;;;;;;;;143737;570;46010;-87
2021/09/29 14:36:39;;;;;;;12.37;5.00;;;;;;;;;;143731;689;47020;-87
2021/09/29 14:39:06;;;;;;;13.30;5.43;;;;;;;;;;143732;611;46010;-87
2021/09/29 14:41:32;;;;;;;11.65;6.82;;;;;;;;;;143734;662;46019;-87
2021/09/29 14:43:59;;;;;;;13.75;6.87;;;;;;;;;;143735;691;46010;-89
2021/09/29 14:46:26;;;;;;;13.35;5.28;;;;;;;;;;143732;570;47018;-87
2021/09/29 14:48:52;;;;;;;10.88;5.82;;;;;;;;;;143733;606;46010;-87
2021/09/29 14:51:19;;;;;;;15.35;5.68;;;;;;;;;;143733;650;46018;-86
2021/09/29 14:53:48;;;;;;;8.98;4.70;;;;;;;;;;143734;563;46020;-87
2021/09/29 14:56:17;;;;;;;11.00;9.00;;;;;;;;;;143732;629;47020;-86
2021/09/29 14:58:44;;;;;;;9.93;5.35;;;;;;;;;;143732;564;46010;-87
2021/09/29 15:01:11;;;;;;;8.75;5.37;;;;;;;;;;143735;570;46012;-88
2021/09/29 15:03:37;;;;;;;13.13;5.65;;;;;;;;;;143735;646;46010;-86
2021/09/29 15:06:04;;;;;;;9.45;5.07;;;;;;;;;;143733;575;47021;-88
2021/09/29 15:08:31;;;;;;;11.10;5.35;;;;;;;;;;143733;592;46022;-87
2021/09/29 15:10:58;;;;;;;14.15;5.50;;;;;;;;;;143735;673;46019;-87
2021/09/29 15:13:29;;;;;;;12.70;6.82;;;;;;;;;;143734;685;46010;-87
2021/09/29 15:16:08;;;;;;;17.55;5.35;;;;;;;;;;143734;619;46047;-88
2021/09/29 15:18:46;;;;;;;10.13;4.97;;;;;;;;;;143732;663;46010;-88
2021/09/29 15:30:08;;;;;;;14.60;8.90;;;;;;;;;;143733;569;46022;-83
2021/09/29 15:49:32;;;;;;;12.57;4.65;;;;;;;;;;143735;589;46019;-87
2021/09/29 15:54:56;;;;;;;9.27;4.00;;;;;;;;;;143735;578;46018;-86
2021/09/29 15:57:35;;;;;;;12.70;4.12;;;;;;;;;;143740;569;46010;-87
2021/09/29 16:00:40;;;;;;;12.75;4.35;;;;;;;;;;143731;582;47020;-85
2021/09/29 16:09:10;;;;;;;12.50;5.68;;;;;;;;;;143733;587;46022;-87
2021/09/29 16:12:01;;;;;;;13.05;5.30;;;;;;;;;;143735;564;46022;-88
2021/09/29 16:17:37;;;;;;;14.57;6.57;;;;;;;;;;143736;592;46012;-86
2021/09/29 16:31:11;;;;;;;15.23;6.10;;;;;;;;;;143738;680;46022;-88
2021/09/29 16:33:49;;;;;;;12.75;5.20;;;;;;;;;;143732;588;46020;-87
2021/09/29 16:36:18;;;;;;;11.60;5.25;;;;;;;;;;143731;632;46010;-86
2021/09/29 16:38:46;;;;;;;12.15;5.45;;;;;;;;;;143731;600;47018;-87
2021/09/29 16:41:15;;;;;;;9.43;4.40;;;;;;;;;;143735;624;46010;-87
2021/09/29 16:43:43;;;;;;;10.68;5.22;;;;;;;;;;143733;575;46021;-90
2021/09/29 16:46:13;;;;;;;16.45;5.47;;;;;;;;;;143732;591;46022;-86
2021/09/29 16:48:40;;;;;;;19.02;5.25;;;;;;;;;;143733;625;47019;-88
2021/09/29 16:51:21;;;;;;;21.75;5.30;;;;;;;;;;143733;622;46010;-87
2021/09/29 16:53:51;;;;;;;12.65;5.37;;;;;;;;;;143734;565;46049;-85
2021/09/29 16:56:21;;;;;;;15.88;6.55;;;;;;;;;;143731;645;46011;-85
2021/09/29 16:58:59;;;;;;;7.97;6.10;;;;;;;;;;143733;637;47018;-92
2021/09/29 17:01:29;;;;;;;12.98;6.32;;;;;;;;;;143735;569;46020;-89
2021/09/29 17:03:57;;;;;;;14.57;6.25;;;;;;;;;;143734;618;46044;-88
2021/09/29 17:06:25;;;;;;;17.20;6.78;;;;;;;;;;143731;589;46012;-91
2021/09/29 17:08:52;;;;;;;22.17;8.75;;;;;;;;;;143732;606;46012;-90
2021/09/29 17:11:18;;;;;;;16.55;6.22;;;;;;;;;;143733;570;46012;-89
2021/09/29 17:13:45;;;;;;;15.98;5.75;;;;;;;;;;143731;660;47018;-89
2021/09/29 17:16:22;;;;;;;11.32;5.82;;;;;;;;;;143731;630;46012;-93
2021/09/29 17:18:50;;;;;;;13.05;5.45;;;;;;;;;;143735;570;46019;-89
2021/09/29 17:21:27;;;;;;;11.73;5.15;;;;;;;;;;143736;570;46010;-93
2021/09/29 17:23:55;;;;;;;10.40;6.15;;;;;;;;;;143735;610;46018;-91
2021/09/29 17:26:23;;;;;;;8.80;4.80;;;;;;;;;;143731;653;46013;-95
2021/09/29 17:29:01;;;;;;;9.95;6.20;;;;;;;;;;143734;657;46018;-90
2021/09/29 17:34:36;;;;;;;23.95;6.28;;;;;;;;;;143730;586;46018;-85
2021/09/29 17:52:09;;;;;;;11.43;4.95;;;;;;;;;;143731;564;47023;-91
2021/09/29 17:53:58;;;;;;;7.53;4.60;;;;;;;;;;143734;630;47022;-91
2021/09/29 17:56:25;;;;;;;7.93;5.20;;;;;;;;;;143734;589;46019;-90
2021/09/29 17:58:52;;;;;;;10.63;4.22;;;;;;;;;;143733;569;46022;-89
2021/09/29 18:01:22;;;;;;;7.70;4.93;;;;;;;;;;143735;570;45018;-92
2021/09/29 18:09:24;;;;;;;8.57;4.50;;;;;;;;;;143731;578;47022;-89
2021/09/29 18:12:00;;;;;;;12.18;4.53;;;;;;;;;;143735;577;46019;-92
2021/09/29 18:14:34;;;;;;;11.38;4.40;;;;;;;;;;143735;603;46020;-91
2021/09/29 18:17:02;;;;;;;8.50;5.55;;;;;;;;;;143733;625;46020;-91
2021/09/29 18:19:32;;;;;;;7.12;4.70;;;;;;;;;;143734;628;46023;-92
2021/09/29 18:22:00;;;;;;;12.75;5.40;;;;;;;;;;143734;564;46018;-91
2021/09/29 18:24:30;;;;;;;9.60;5.07;;;;;;;;;;143735;589;46022;-94
2021/09/29 18:26:57;;;;;;;11.32;5.75;;;;;;;;;;143733;626;46021;-91
2021/09/29 18:29:24;;;;;;;7.00;5.68;;;;;;;;;;143734;586;45918;-90
2021/09/29 18:32:21;;;;;;;10.20;4.90;;;;;;;;;;143735;657;46017;-94
2021/09/29 18:34:51;;;;;;;11.52;5.20;;;;;;;;;;143734;617;47020;-92
2021/09/29 18:37:33;;;;;;;15.18;5.40;;;;;;;;;;143735;582;46020;-91
2021/09/29 18:40:05;;;;;;;16.92;5.40;;;;;;;;;;143731;564;46013;-91
2021/09/29 18:42:41;;;;;;;;;;;;;;;;;;;;;
2021/09/29 18:45:10;;;;;;;18.73;6.12;;;;;;;;;;143735;569;47020;-93
2021/09/29 18:47:58;;;;;;;14.43;6.03;;;;;;;;;;143734;665;46020;-94
2021/09/29 18:50:43;;;;;;;;;;;;;;;;;;;;;
2021/09/29 18:53:16;;;;;;;11.02;5.37;;;;;;;;;;143734;579;46014;-90
2021/09/29 18:55:55;;;;;;;;;;;;;;;;;;143739;979;46010;-91
2021/09/29 19:08:20;;;;;;;13.35;5.93;;;;;;;;;;143737;571;46022;-93
2021/09/29 19:12:02;;;;;;;12.35;6.30;;;;;;;;;;143736;579;45021;-94
2021/09/29 19:14:49;;;;;;;15.00;7.03;;;;;;;;;;143735;605;46012;-93